sensor_id;sensor_type;location;lat;lon;timestamp;pressure;altitude;pressure_sealevel;temperature;humidity
6034;BME280;3045;43.226;27.858;2023-03-18T00:00:27;148045.44;;;7.96;81.65
6034;BME280;3045;43.226;27.858;2023-03-18T00:02:57;148064.34;;;8.03;81.07
6034;BME280;3045;43.226;27.858;2023-03-18T00:05:25;148070.69;;;8.06;78.55
6034;BME280;3045;43.226;27.858;2023-03-18T00:07:52;148022.72;;;7.87;79.37
6034;BME280;3045;43.226;27.858;2023-03-18T00:10:19;148064.34;;;8.03;80.62
6034;BME280;3045;43.226;27.858;2023-03-18T00:12:46;148027.78;;;7.89;80.72
6034;BME280;3045;43.226;27.858;2023-03-18T00:15:14;148000.00;;;7.77;81.35
6034;BME280;3045;43.226;27.858;2023-03-18T00:17:43;148016.44;;;7.84;82.02
6034;BME280;3045;43.226;27.858;2023-03-18T00:20:11;147989.91;;;7.73;85.16
6034;BME280;3045;43.226;27.858;2023-03-18T00:22:40;147992.44;;;7.74;83.09
6034;BME280;3045;43.226;27.858;2023-03-18T00:25:09;147998.75;;;7.77;84.28
6034;BME280;3045;43.226;27.858;2023-03-18T00:27:37;147977.31;;;7.68;84.10
6034;BME280;3045;43.226;27.858;2023-03-18T00:30:05;148015.16;;;7.84;84.49
6034;BME280;3045;43.226;27.858;2023-03-18T00:32:34;147977.31;;;7.68;87.24
6034;BME280;3045;43.226;27.858;2023-03-18T00:35:01;147963.47;;;7.63;88.01
6034;BME280;3045;43.226;27.858;2023-03-18T00:37:28;147942.03;;;7.54;89.69
6034;BME280;3045;43.226;27.858;2023-03-18T00:40:03;147877.72;;;7.28;89.38
6034;BME280;3045;43.226;27.858;2023-03-18T00:42:32;147909.25;;;7.41;87.17
6034;BME280;3045;43.226;27.858;2023-03-18T00:45:04;147949.56;;;7.57;90.00
6034;BME280;3045;43.226;27.858;2023-03-18T00:47:32;147909.25;;;7.41;89.85
6034;BME280;3045;43.226;27.858;2023-03-18T00:50:00;147905.44;;;7.40;88.93
6034;BME280;3045;43.226;27.858;2023-03-18T00:52:27;147895.34;;;7.35;89.91
6034;BME280;3045;43.226;27.858;2023-03-18T00:54:55;147904.19;;;7.39;88.59
6034;BME280;3045;43.226;27.858;2023-03-18T00:57:23;147916.78;;;7.44;93.23
6034;BME280;3045;43.226;27.858;2023-03-18T00:59:50;147886.53;;;7.32;92.18
6034;BME280;3045;43.226;27.858;2023-03-18T01:02:17;147882.75;;;7.30;94.27
6034;BME280;3045;43.226;27.858;2023-03-18T01:04:48;147904.19;;;7.39;93.69
6034;BME280;3045;43.226;27.858;2023-03-18T01:07:15;147901.69;;;7.38;94.58
6034;BME280;3045;43.226;27.858;2023-03-18T01:09:42;147848.75;;;7.17;96.48
6034;BME280;3045;43.226;27.858;2023-03-18T01:12:10;147855.03;;;7.19;98.89
6034;BME280;3045;43.226;27.858;2023-03-18T01:14:39;147817.22;;;7.04;100.00
6034;BME280;3045;43.226;27.858;2023-03-18T01:17:07;147768.06;;;6.84;100.00
6034;BME280;3045;43.226;27.858;2023-03-18T01:19:35;147797.03;;;6.96;100.00
6034;BME280;3045;43.226;27.858;2023-03-18T01:22:04;147807.09;;;7.00;100.00
6034;BME280;3045;43.226;27.858;2023-03-18T01:24:32;147805.88;;;7.00;100.00
6034;BME280;3045;43.226;27.858;2023-03-18T01:26:58;147776.88;;;6.88;100.00
6034;BME280;3045;43.226;27.858;2023-03-18T01:29:25;147750.44;;;6.77;100.00
6034;BME280;3045;43.226;27.858;2023-03-18T01:31:54;147786.94;;;6.92;100.00
6034;BME280;3045;43.226;27.858;2023-03-18T01:34:21;147756.72;;;6.80;100.00
6034;BME280;3045;43.226;27.858;2023-03-18T01:36:48;147746.63;;;6.76;100.00
6034;BME280;3045;43.226;27.858;2023-03-18T01:39:15;147745.34;;;6.75;100.00
6034;BME280;3045;43.226;27.858;2023-03-18T01:41:43;147722.66;;;6.66;100.00
6034;BME280;3045;43.226;27.858;2023-03-18T01:44:14;147725.22;;;6.67;100.00
6034;BME280;3045;43.226;27.858;2023-03-18T01:46:42;147707.59;;;6.60;100.00
6034;BME280;3045;43.226;27.858;2023-03-18T01:49:14;147676.09;;;6.48;100.00
6034;BME280;3045;43.226;27.858;2023-03-18T01:51:45;147637.06;;;6.32;100.00
6034;BME280;3045;43.226;27.858;2023-03-18T01:54:14;147632.00;;;6.30;100.00
6034;BME280;3045;43.226;27.858;2023-03-18T01:56:43;147594.22;;;6.15;100.00
6034;BME280;3045;43.226;27.858;2023-03-18T01:59:12;147576.56;;;6.08;100.00
6034;BME280;3045;43.226;27.858;2023-03-18T02:01:45;147608.03;;;6.20;100.00
6034;BME280;3045;43.226;27.858;2023-03-18T02:04:15;147601.78;;;6.18;100.00
6034;BME280;3045;43.226;27.858;2023-03-18T02:06:43;147595.50;;;6.15;100.00
6034;BME280;3045;43.226;27.858;2023-03-18T02:09:11;147570.28;;;6.05;100.00
6034;BME280;3045;43.226;27.858;2023-03-18T02:11:41;147493.41;;;5.74;100.00
6034;BME280;3045;43.226;27.858;2023-03-18T02:14:11;147497.22;;;5.76;100.00
6034;BME280;3045;43.226;27.858;2023-03-18T02:16:43;147527.47;;;5.88;100.00
6034;BME280;3045;43.226;27.858;2023-03-18T02:19:38;147493.41;;;5.74;100.00
6034;BME280;3045;43.226;27.858;2023-03-18T02:24:58;147479.56;;;5.69;100.00
6034;BME280;3045;43.226;27.858;2023-03-18T02:27:32;147433.00;;;5.50;100.00
6034;BME280;3045;43.226;27.858;2023-03-18T02:30:06;147446.88;;;5.56;100.00
6034;BME280;3045;43.226;27.858;2023-03-18T02:32:34;147400.28;;;5.37;100.00
6034;BME280;3045;43.226;27.858;2023-03-18T02:35:05;147354.94;;;5.19;100.00
6034;BME280;3045;43.226;27.858;2023-03-18T02:37:33;147397.75;;;5.36;100.00
6034;BME280;3045;43.226;27.858;2023-03-18T02:40:12;147371.34;;;5.25;100.00
6034;BME280;3045;43.226;27.858;2023-03-18T02:42:41;147347.41;;;5.16;100.00
6034;BME280;3045;43.226;27.858;2023-03-18T02:45:15;147332.28;;;5.10;100.00
6034;BME280;3045;43.226;27.858;2023-03-18T02:47:46;147353.69;;;5.18;100.00
6034;BME280;3045;43.226;27.858;2023-03-18T02:50:14;147324.75;;;5.06;100.00
6034;BME280;3045;43.226;27.858;2023-03-18T02:52:42;147348.69;;;5.16;100.00
6034;BME280;3045;43.226;27.858;2023-03-18T02:55:09;147329.81;;;5.09;100.00
6034;BME280;3045;43.226;27.858;2023-03-18T02:57:35;147305.91;;;4.99;100.00
6034;BME280;3045;43.226;27.858;2023-03-18T03:00:05;147309.69;;;5.00;100.00
6034;BME280;3045;43.226;27.858;2023-03-18T03:02:32;147300.84;;;4.97;100.00
6034;BME280;3045;43.226;27.858;2023-03-18T03:04:59;147202.75;;;4.57;100.00
6034;BME280;3045;43.226;27.858;2023-03-18T03:07:26;147248.00;;;4.76;100.00
6034;BME280;3045;43.226;27.858;2023-03-18T03:09:53;147226.63;;;4.67;100.00
6034;BME280;3045;43.226;27.858;2023-03-18T03:12:21;147231.69;;;4.69;100.00
6034;BME280;3045;43.226;27.858;2023-03-18T03:14:48;147182.63;;;4.49;100.00
6034;BME280;3045;43.226;27.858;2023-03-18T03:17:16;147173.78;;;4.46;100.00
6034;BME280;3045;43.226;27.858;2023-03-18T03:19:43;147137.34;;;4.31;100.00
6034;BME280;3045;43.226;27.858;2023-03-18T03:22:10;147166.25;;;4.43;100.00
6034;BME280;3045;43.226;27.858;2023-03-18T03:24:37;147152.41;;;4.37;100.00
6034;BME280;3045;43.226;27.858;2023-03-18T03:27:04;147127.28;;;4.27;100.00
6034;BME280;3045;43.226;27.858;2023-03-18T03:29:34;147133.56;;;4.30;100.00
6034;BME280;3045;43.226;27.858;2023-03-18T03:32:01;147108.44;;;4.20;100.00
6034;BME280;3045;43.226;27.858;2023-03-18T03:34:29;147129.81;;;4.28;100.00
6034;BME280;3045;43.226;27.858;2023-03-18T03:36:56;147128.56;;;4.28;100.00
6034;BME280;3045;43.226;27.858;2023-03-18T03:39:23;147136.09;;;4.31;100.00
6034;BME280;3045;43.226;27.858;2023-03-18T03:41:50;147128.56;;;4.28;100.00
6034;BME280;3045;43.226;27.858;2023-03-18T03:44:17;147063.16;;;4.01;100.00
6034;BME280;3045;43.226;27.858;2023-03-18T03:46:44;147104.66;;;4.18;100.00
6034;BME280;3045;43.226;27.858;2023-03-18T03:49:13;147077.00;;;4.07;100.00
6034;BME280;3045;43.226;27.858;2023-03-18T03:51:41;147110.91;;;4.21;100.00
6034;BME280;3045;43.226;27.858;2023-03-18T03:54:09;147045.59;;;3.94;100.00
6034;BME280;3045;43.226;27.858;2023-03-18T03:56:37;147054.38;;;3.98;100.00
6034;BME280;3045;43.226;27.858;2023-03-18T03:59:04;147068.16;;;4.03;100.00
6034;BME280;3045;43.226;27.858;2023-03-18T04:01:31;147061.91;;;4.01;100.00
6034;BME280;3045;43.226;27.858;2023-03-18T04:03:59;147078.22;;;4.07;100.00
6034;BME280;3045;43.226;27.858;2023-03-18T04:06:27;147073.22;;;4.05;100.00
6034;BME280;3045;43.226;27.858;2023-03-18T04:08:55;147079.50;;;4.08;100.00
6034;BME280;3045;43.226;27.858;2023-03-18T04:11:22;147073.22;;;4.05;100.00
6034;BME280;3045;43.226;27.858;2023-03-18T04:13:49;147098.38;;;4.16;100.00
6034;BME280;3045;43.226;27.858;2023-03-18T04:16:16;147105.91;;;4.19;100.00
6034;BME280;3045;43.226;27.858;2023-03-18T04:18:43;147078.22;;;4.07;100.00
6034;BME280;3045;43.226;27.858;2023-03-18T04:21:11;147073.22;;;4.05;100.00
6034;BME280;3045;43.226;27.858;2023-03-18T04:23:38;147044.31;;;3.94;100.00
6034;BME280;3045;43.226;27.858;2023-03-18T04:26:06;147100.88;;;4.17;100.00
6034;BME280;3045;43.226;27.858;2023-03-18T04:28:33;147065.69;;;4.02;100.00
6034;BME280;3045;43.226;27.858;2023-03-18T04:31:00;147065.69;;;4.02;100.00
6034;BME280;3045;43.226;27.858;2023-03-18T04:33:27;147065.69;;;4.02;100.00
6034;BME280;3045;43.226;27.858;2023-03-18T04:35:55;147077.00;;;4.07;100.00
6034;BME280;3045;43.226;27.858;2023-03-18T04:38:22;147078.22;;;4.07;100.00
6034;BME280;3045;43.226;27.858;2023-03-18T04:40:49;147085.81;;;4.10;100.00
6034;BME280;3045;43.226;27.858;2023-03-18T04:43:18;147040.53;;;3.92;100.00
6034;BME280;3045;43.226;27.858;2023-03-18T04:45:45;147077.00;;;4.07;100.00
6034;BME280;3045;43.226;27.858;2023-03-18T04:48:12;147069.44;;;4.04;100.00
6034;BME280;3045;43.226;27.858;2023-03-18T04:50:39;147006.59;;;3.79;100.00
6034;BME280;3045;43.226;27.858;2023-03-18T04:53:06;147043.06;;;3.93;100.00
6034;BME280;3045;43.226;27.858;2023-03-18T04:55:33;147161.25;;;4.41;100.00
6034;BME280;3045;43.226;27.858;2023-03-18T04:58:01;147293.31;;;4.94;100.00
6034;BME280;3045;43.226;27.858;2023-03-18T05:00:29;147324.75;;;5.06;100.00
6034;BME280;3045;43.226;27.858;2023-03-18T05:02:56;147312.16;;;5.01;100.00
6034;BME280;3045;43.226;27.858;2023-03-18T05:05:23;147319.75;;;5.04;100.00
6034;BME280;3045;43.226;27.858;2023-03-18T05:07:49;147236.69;;;4.71;100.00
6034;BME280;3045;43.226;27.858;2023-03-18T05:10:17;147230.41;;;4.69;100.00
6034;BME280;3045;43.226;27.858;2023-03-18T05:12:44;147253.06;;;4.78;100.00
6034;BME280;3045;43.226;27.858;2023-03-18T05:15:11;147249.28;;;4.76;100.00
6034;BME280;3045;43.226;27.858;2023-03-18T05:17:40;147182.63;;;4.49;100.00
6034;BME280;3045;43.226;27.858;2023-03-18T05:20:09;147229.16;;;4.68;100.00
6034;BME280;3045;43.226;27.858;2023-03-18T05:22:37;147237.94;;;4.72;100.00
6034;BME280;3045;43.226;27.858;2023-03-18T05:25:05;147280.72;;;4.89;100.00
6034;BME280;3045;43.226;27.858;2023-03-18T05:27:33;147329.81;;;5.09;100.00
6034;BME280;3045;43.226;27.858;2023-03-18T05:29:59;147381.41;;;5.29;100.00
6034;BME280;3045;43.226;27.858;2023-03-18T05:32:26;147375.09;;;5.27;100.00
6034;BME280;3045;43.226;27.858;2023-03-18T05:34:55;147448.06;;;5.56;100.00
6034;BME280;3045;43.226;27.858;2023-03-18T05:37:22;147440.53;;;5.53;100.00
6034;BME280;3045;43.226;27.858;2023-03-18T05:39:49;147574.09;;;6.07;100.00
6034;BME280;3045;43.226;27.858;2023-03-18T05:42:16;147681.09;;;6.50;100.00
6034;BME280;3045;43.226;27.858;2023-03-18T05:44:44;147926.88;;;7.48;100.00
6034;BME280;3045;43.226;27.858;2023-03-18T05:47:11;147962.19;;;7.62;96.18
6034;BME280;3045;43.226;27.858;2023-03-18T05:49:38;147909.25;;;7.41;95.83
6034;BME280;3045;43.226;27.858;2023-03-18T05:52:07;147890.34;;;7.33;98.22
6034;BME280;3045;43.226;27.858;2023-03-18T05:54:34;147909.25;;;7.41;96.54
6034;BME280;3045;43.226;27.858;2023-03-18T05:57:01;147939.50;;;7.53;96.54
6034;BME280;3045;43.226;27.858;2023-03-18T05:59:28;147976.09;;;7.68;94.73
6034;BME280;3045;43.226;27.858;2023-03-18T06:01:58;147954.66;;;7.59;93.10
6034;BME280;3045;43.226;27.858;2023-03-18T06:04:25;148032.81;;;7.91;92.64
6034;BME280;3045;43.226;27.858;2023-03-18T06:06:52;148054.25;;;7.99;92.20
6034;BME280;3045;43.226;27.858;2023-03-18T06:09:20;148045.44;;;7.96;89.57
6034;BME280;3045;43.226;27.858;2023-03-18T06:11:48;148055.50;;;8.00;89.53
6034;BME280;3045;43.226;27.858;2023-03-18T06:14:15;148164.06;;;8.43;88.98
6034;BME280;3045;43.226;27.858;2023-03-18T06:16:42;148183.00;;;8.51;87.26
6034;BME280;3045;43.226;27.858;2023-03-18T06:19:09;148212.00;;;8.62;85.19
6034;BME280;3045;43.226;27.858;2023-03-18T06:21:37;148272.63;;;8.87;90.00
6034;BME280;3045;43.226;27.858;2023-03-18T06:24:04;148358.44;;;9.21;85.93
6034;BME280;3045;43.226;27.858;2023-03-18T06:26:32;148391.25;;;9.34;85.85
6034;BME280;3045;43.226;27.858;2023-03-18T06:28:59;148580.72;;;10.10;81.14
6034;BME280;3045;43.226;27.858;2023-03-18T06:31:26;148692.00;;;10.54;77.20
6034;BME280;3045;43.226;27.858;2023-03-18T06:33:53;148805.78;;;11.00;71.47
6034;BME280;3045;43.226;27.858;2023-03-18T06:36:20;148750.13;;;10.78;72.22
6034;BME280;3045;43.226;27.858;2023-03-18T06:38:47;148743.84;;;10.75;70.60
6034;BME280;3045;43.226;27.858;2023-03-18T06:41:15;148848.78;;;11.17;69.99
6034;BME280;3045;43.226;27.858;2023-03-18T06:43:43;148939.88;;;11.54;69.54
6034;BME280;3045;43.226;27.858;2023-03-18T06:46:12;149111.97;;;12.22;65.00
6034;BME280;3045;43.226;27.858;2023-03-18T06:48:39;149058.81;;;12.01;64.92
6034;BME280;3045;43.226;27.858;2023-03-18T06:51:06;149148.69;;;12.37;63.96
6034;BME280;3045;43.226;27.858;2023-03-18T06:53:33;149161.38;;;12.42;61.05
6034;BME280;3045;43.226;27.858;2023-03-18T06:56:03;149103.13;;;12.19;62.02
6034;BME280;3045;43.226;27.858;2023-03-18T06:58:30;149024.69;;;11.87;63.30
6034;BME280;3045;43.226;27.858;2023-03-18T07:01:01;148953.75;;;11.59;67.86
6034;BME280;3045;43.226;27.858;2023-03-18T07:03:28;148975.25;;;11.68;68.30
6034;BME280;3045;43.226;27.858;2023-03-18T07:05:55;149043.66;;;11.95;67.30
6034;BME280;3045;43.226;27.858;2023-03-18T07:08:23;149096.81;;;12.16;67.06
6034;BME280;3045;43.226;27.858;2023-03-18T07:10:51;149228.44;;;12.69;63.29
6034;BME280;3045;43.226;27.858;2023-03-18T07:13:18;149200.59;;;12.58;62.17
6034;BME280;3045;43.226;27.858;2023-03-18T07:15:45;149319.63;;;13.05;62.43
6034;BME280;3045;43.226;27.858;2023-03-18T07:18:13;149271.50;;;12.86;62.19
6034;BME280;3045;43.226;27.858;2023-03-18T07:20:40;149263.91;;;12.83;64.30
6034;BME280;3045;43.226;27.858;2023-03-18T07:23:07;149315.81;;;13.04;64.83
6034;BME280;3045;43.226;27.858;2023-03-18T07:25:35;149343.75;;;13.15;64.66
6034;BME280;3045;43.226;27.858;2023-03-18T07:28:02;149365.28;;;13.23;65.60
6034;BME280;3045;43.226;27.858;2023-03-18T07:30:31;149206.91;;;12.60;67.24
6034;BME280;3045;43.226;27.858;2023-03-18T07:32:59;149157.56;;;12.41;66.55
6034;BME280;3045;43.226;27.858;2023-03-18T07:35:28;149243.66;;;12.75;67.90
6034;BME280;3045;43.226;27.858;2023-03-18T07:37:55;149217.09;;;12.64;68.87
6034;BME280;3045;43.226;27.858;2023-03-18T07:40:22;149225.94;;;12.68;67.53
6034;BME280;3045;43.226;27.858;2023-03-18T07:42:49;149293.03;;;12.95;68.59
6034;BME280;3045;43.226;27.858;2023-03-18T07:45:18;149329.78;;;13.09;65.86
6034;BME280;3045;43.226;27.858;2023-03-18T07:47:45;149191.75;;;12.54;66.52
6034;BME280;3045;43.226;27.858;2023-03-18T07:50:12;149129.72;;;12.29;67.60
6034;BME280;3045;43.226;27.858;2023-03-18T07:52:41;148929.75;;;11.50;72.47
6034;BME280;3045;43.226;27.858;2023-03-18T07:55:09;148836.13;;;11.12;77.04
6034;BME280;3045;43.226;27.858;2023-03-18T07:57:36;148957.56;;;11.61;81.15
6034;BME280;3045;43.226;27.858;2023-03-18T08:00:04;149020.88;;;11.86;75.81
6034;BME280;3045;43.226;27.858;2023-03-18T08:02:31;148982.88;;;11.71;76.70
6034;BME280;3045;43.226;27.858;2023-03-18T08:05:00;149013.28;;;11.83;75.31
6034;BME280;3045;43.226;27.858;2023-03-18T08:07:27;148960.09;;;11.62;80.33
6034;BME280;3045;43.226;27.858;2023-03-18T08:09:56;148793.13;;;10.95;87.14
6034;BME280;3045;43.226;27.858;2023-03-18T08:12:23;148815.91;;;11.04;87.40
6034;BME280;3045;43.226;27.858;2023-03-18T08:14:50;148805.78;;;11.00;90.12
6034;BME280;3045;43.226;27.858;2023-03-18T08:17:17;148704.66;;;10.60;92.07
6034;BME280;3045;43.226;27.858;2023-03-18T08:19:44;148716.03;;;10.64;95.14
6034;BME280;3045;43.226;27.858;2023-03-18T08:22:13;148702.13;;;10.59;96.43
6034;BME280;3045;43.226;27.858;2023-03-18T08:24:40;148722.34;;;10.67;98.13
6034;BME280;3045;43.226;27.858;2023-03-18T08:27:09;148608.59;;;10.21;100.00
6034;BME280;3045;43.226;27.858;2023-03-18T08:29:36;148650.31;;;10.38;100.00
6034;BME280;3045;43.226;27.858;2023-03-18T08:32:03;148709.69;;;10.62;100.00
6034;BME280;3045;43.226;27.858;2023-03-18T08:34:30;148692.00;;;10.54;100.00
6034;BME280;3045;43.226;27.858;2023-03-18T08:36:57;148671.78;;;10.46;100.00
6034;BME280;3045;43.226;27.858;2023-03-18T08:39:26;148694.56;;;10.56;100.00
6034;BME280;3045;43.226;27.858;2023-03-18T08:41:53;148689.47;;;10.53;100.00
6034;BME280;3045;43.226;27.858;2023-03-18T08:44:22;148772.91;;;10.87;100.00
6034;BME280;3045;43.226;27.858;2023-03-18T08:46:49;148766.59;;;10.84;100.00
6034;BME280;3045;43.226;27.858;2023-03-18T08:49:16;148731.19;;;10.70;100.00
6034;BME280;3045;43.226;27.858;2023-03-18T08:51:43;148896.84;;;11.36;100.00
6034;BME280;3045;43.226;27.858;2023-03-18T08:54:11;149004.44;;;11.79;100.00
6034;BME280;3045;43.226;27.858;2023-03-18T08:56:38;149023.41;;;11.87;99.70
6034;BME280;3045;43.226;27.858;2023-03-18T08:59:05;149014.56;;;11.83;100.00
6034;BME280;3045;43.226;27.858;2023-03-18T09:01:33;148998.09;;;11.77;100.00
6034;BME280;3045;43.226;27.858;2023-03-18T09:04:00;148942.38;;;11.55;100.00
6034;BME280;3045;43.226;27.858;2023-03-18T09:06:27;148930.97;;;11.50;100.00
6034;BME280;3045;43.226;27.858;2023-03-18T09:08:54;148934.78;;;11.52;100.00
6034;BME280;3045;43.226;27.858;2023-03-18T09:11:22;148848.78;;;11.17;100.00
6034;BME280;3045;43.226;27.858;2023-03-18T09:13:49;148756.50;;;10.80;100.00
6034;BME280;3045;43.226;27.858;2023-03-18T09:16:16;148732.44;;;10.71;100.00
6034;BME280;3045;43.226;27.858;2023-03-18T09:18:45;148723.63;;;10.67;100.00
6034;BME280;3045;43.226;27.858;2023-03-18T09:21:12;148738.81;;;10.73;100.00
6034;BME280;3045;43.226;27.858;2023-03-18T09:23:38;148779.25;;;10.89;100.00
6034;BME280;3045;43.226;27.858;2023-03-18T09:26:05;148771.63;;;10.86;100.00
6034;BME280;3045;43.226;27.858;2023-03-18T09:28:32;148831.09;;;11.10;100.00
6034;BME280;3045;43.226;27.858;2023-03-18T09:31:02;148839.94;;;11.14;100.00
6034;BME280;3045;43.226;27.858;2023-03-18T09:33:30;148832.38;;;11.11;100.00
6034;BME280;3045;43.226;27.858;2023-03-18T09:36:00;148833.63;;;11.11;100.00
6034;BME280;3045;43.226;27.858;2023-03-18T09:38:30;148765.31;;;10.84;100.00
6034;BME280;3045;43.226;27.858;2023-03-18T09:41:17;148742.56;;;10.75;100.00
6034;BME280;3045;43.226;27.858;2023-03-18T09:43:56;148573.16;;;10.07;100.00
6034;BME280;3045;43.226;27.858;2023-03-18T09:46:31;148627.56;;;10.29;100.00
6034;BME280;3045;43.226;27.858;2023-03-18T09:49:34;148570.63;;;10.06;100.00
6034;BME280;3045;43.226;27.858;2023-03-18T09:52:12;148616.19;;;10.24;100.00
6034;BME280;3045;43.226;27.858;2023-03-18T09:54:45;148588.34;;;10.13;100.00
6034;BME280;3045;43.226;27.858;2023-03-18T09:57:17;148614.91;;;10.24;100.00
6034;BME280;3045;43.226;27.858;2023-03-18T09:59:46;148576.97;;;10.08;100.00
6034;BME280;3045;43.226;27.858;2023-03-18T10:02:21;148517.56;;;9.85;100.00
6034;BME280;3045;43.226;27.858;2023-03-18T10:04:52;148532.75;;;9.91;100.00
6034;BME280;3045;43.226;27.858;2023-03-18T10:07:26;148534.00;;;9.91;100.00
6034;BME280;3045;43.226;27.858;2023-03-18T10:09:58;148440.53;;;9.54;100.00
6034;BME280;3045;43.226;27.858;2023-03-18T10:12:30;148454.41;;;9.59;100.00
6034;BME280;3045;43.226;27.858;2023-03-18T10:15:09;148504.97;;;9.80;100.00
6034;BME280;3045;43.226;27.858;2023-03-18T10:17:42;148523.91;;;9.87;100.00
6034;BME280;3045;43.226;27.858;2023-03-18T10:20:16;148501.16;;;9.78;100.00
6034;BME280;3045;43.226;27.858;2023-03-18T10:22:53;148527.66;;;9.89;100.00
6034;BME280;3045;43.226;27.858;2023-03-18T10:25:25;148555.50;;;10.00;100.00
6034;BME280;3045;43.226;27.858;2023-03-18T10:28:03;148512.53;;;9.83;100.00
6034;BME280;3045;43.226;27.858;2023-03-18T10:30:45;148520.09;;;9.86;100.00
6034;BME280;3045;43.226;27.858;2023-03-18T10:33:21;148556.75;;;10.00;100.00
6034;BME280;3045;43.226;27.858;2023-03-18T10:35:56;148502.44;;;9.79;100.00
6034;BME280;3045;43.226;27.858;2023-03-18T10:38:28;148542.84;;;9.95;100.00
6034;BME280;3045;43.226;27.858;2023-03-18T10:40:59;148479.69;;;9.70;100.00
6034;BME280;3045;43.226;27.858;2023-03-18T10:43:29;148512.53;;;9.83;100.00
6034;BME280;3045;43.226;27.858;2023-03-18T10:45:59;148511.25;;;9.82;100.00
6034;BME280;3045;43.226;27.858;2023-03-18T10:48:29;148496.09;;;9.76;100.00
6034;BME280;3045;43.226;27.858;2023-03-18T10:51:05;148444.31;;;9.55;100.00
6034;BME280;3045;43.226;27.858;2023-03-18T10:53:38;148491.06;;;9.74;100.00
6034;BME280;3045;43.226;27.858;2023-03-18T10:56:09;148454.41;;;9.59;100.00
6034;BME280;3045;43.226;27.858;2023-03-18T10:58:38;148434.19;;;9.51;100.00
6034;BME280;3045;43.226;27.858;2023-03-18T11:01:06;148388.78;;;9.33;100.00
6034;BME280;3045;43.226;27.858;2023-03-18T11:03:36;148448.09;;;9.57;100.00
6034;BME280;3045;43.226;27.858;2023-03-18T11:06:14;148451.91;;;9.58;100.00
6034;BME280;3045;43.226;27.858;2023-03-18T11:08:46;148477.16;;;9.69;100.00
6034;BME280;3045;43.226;27.858;2023-03-18T11:11:24;148455.66;;;9.60;100.00
6034;BME280;3045;43.226;27.858;2023-03-18T11:13:53;148456.94;;;9.60;100.00
6034;BME280;3045;43.226;27.858;2023-03-18T11:16:37;148463.28;;;9.63;100.00
6034;BME280;3045;43.226;27.858;2023-03-18T11:19:26;148419.06;;;9.45;100.00
6034;BME280;3045;43.226;27.858;2023-03-18T11:22:03;148438.00;;;9.53;100.00
6034;BME280;3045;43.226;27.858;2023-03-18T11:24:32;148439.28;;;9.53;100.00
6034;BME280;3045;43.226;27.858;2023-03-18T11:27:24;148451.91;;;9.58;100.00
6034;BME280;3045;43.226;27.858;2023-03-18T11:29:54;148498.63;;;9.77;100.00
6034;BME280;3045;43.226;27.858;2023-03-18T11:32:24;148545.38;;;9.96;100.00
6034;BME280;3045;43.226;27.858;2023-03-18T11:34:56;148537.81;;;9.93;100.00
6034;BME280;3045;43.226;27.858;2023-03-18T11:37:32;148523.91;;;9.87;100.00
6034;BME280;3045;43.226;27.858;2023-03-18T11:40:15;148568.13;;;10.05;100.00
6034;BME280;3045;43.226;27.858;2023-03-18T11:42:46;148575.69;;;10.08;100.00
6034;BME280;3045;43.226;27.858;2023-03-18T11:45:41;148568.13;;;10.05;100.00
6034;BME280;3045;43.226;27.858;2023-03-18T11:48:15;148499.88;;;9.78;100.00
6034;BME280;3045;43.226;27.858;2023-03-18T11:50:55;148444.31;;;9.55;100.00
6034;BME280;3045;43.226;27.858;2023-03-18T11:53:32;148460.75;;;9.62;100.00
6034;BME280;3045;43.226;27.858;2023-03-18T11:56:11;148468.31;;;9.65;100.00
6034;BME280;3045;43.226;27.858;2023-03-18T11:58:58;148511.25;;;9.82;100.00
6034;BME280;3045;43.226;27.858;2023-03-18T12:01:31;148432.94;;;9.51;100.00
6034;BME280;3045;43.226;27.858;2023-03-18T12:04:32;148508.72;;;9.81;100.00
6034;BME280;3045;43.226;27.858;2023-03-18T12:07:14;148455.66;;;9.60;100.00
6034;BME280;3045;43.226;27.858;2023-03-18T12:09:51;148472.13;;;9.67;100.00
6034;BME280;3045;43.226;27.858;2023-03-18T12:12:35;148510.00;;;9.82;100.00
6034;BME280;3045;43.226;27.858;2023-03-18T12:15:15;148498.63;;;9.77;100.00
6034;BME280;3045;43.226;27.858;2023-03-18T12:17:53;148446.84;;;9.56;100.00
6034;BME280;3045;43.226;27.858;2023-03-18T12:20:42;148446.84;;;9.56;100.00
6034;BME280;3045;43.226;27.858;2023-03-18T12:23:35;148416.53;;;9.44;100.00
6034;BME280;3045;43.226;27.858;2023-03-18T12:26:06;148424.09;;;9.47;100.00
6034;BME280;3045;43.226;27.858;2023-03-18T12:31:48;148402.63;;;9.39;100.00
6034;BME280;3045;43.226;27.858;2023-03-18T12:34:32;148390.00;;;9.34;100.00
6034;BME280;3045;43.226;27.858;2023-03-18T12:37:16;148371.06;;;9.26;100.00
6034;BME280;3045;43.226;27.858;2023-03-18T12:39:59;148360.97;;;9.22;100.00
6034;BME280;3045;43.226;27.858;2023-03-18T12:42:44;148358.44;;;9.21;100.00
6034;BME280;3045;43.226;27.858;2023-03-18T12:45:19;148347.06;;;9.16;100.00
6034;BME280;3045;43.226;27.858;2023-03-18T12:47:51;148304.19;;;8.99;100.00
6034;BME280;3045;43.226;27.858;2023-03-18T12:50:23;148276.38;;;8.88;100.00
6034;BME280;3045;43.226;27.858;2023-03-18T12:52:55;148290.28;;;8.94;100.00
6034;BME280;3045;43.226;27.858;2023-03-18T12:55:26;148273.84;;;8.87;100.00
6034;BME280;3045;43.226;27.858;2023-03-18T12:57:57;148234.72;;;8.71;100.00
6034;BME280;3045;43.226;27.858;2023-03-18T13:00:29;148227.16;;;8.68;100.00
6034;BME280;3045;43.226;27.858;2023-03-18T13:03:00;148233.47;;;8.71;100.00
6034;BME280;3045;43.226;27.858;2023-03-18T13:05:37;148232.19;;;8.70;100.00
6034;BME280;3045;43.226;27.858;2023-03-18T13:08:27;148237.25;;;8.73;100.00
6034;BME280;3045;43.226;27.858;2023-03-18T13:11:04;148242.28;;;8.75;100.00
6034;BME280;3045;43.226;27.858;2023-03-18T13:13:36;148228.44;;;8.69;100.00
6034;BME280;3045;43.226;27.858;2023-03-18T13:16:07;148201.91;;;8.58;100.00
6034;BME280;3045;43.226;27.858;2023-03-18T13:18:38;148198.16;;;8.57;100.00
6034;BME280;3045;43.226;27.858;2023-03-18T13:21:12;148217.06;;;8.64;100.00